createdAt,value
2018-06-08T00:01:39.825Z,5.40
2018-06-08T00:04:06.969Z,5.63
2018-06-08T00:06:34.119Z,5.40
2018-06-08T00:09:01.228Z,5.27
2018-06-08T00:11:28.328Z,6.53
2018-06-08T00:13:55.467Z,5.30
2018-06-08T00:16:22.584Z,5.50
2018-06-08T00:18:49.719Z,6.03
2018-06-08T00:21:16.852Z,5.20
2018-06-08T00:23:44.014Z,5.47
2018-06-08T00:26:11.118Z,5.67
2018-06-08T00:28:38.243Z,5.43
2018-06-08T00:31:05.352Z,5.83
2018-06-08T00:33:32.526Z,5.57
2018-06-08T00:35:59.626Z,6.83
2018-06-08T00:38:26.739Z,5.67
2018-06-08T00:40:53.875Z,5.30
2018-06-08T00:43:21.024Z,6.10
2018-06-08T00:45:48.216Z,5.20
2018-06-08T00:48:15.391Z,6.30
2018-06-08T00:50:42.567Z,6.00
2018-06-08T00:53:09.690Z,5.63
2018-06-08T00:55:36.782Z,5.80
2018-06-08T00:58:03.918Z,6.57
2018-06-08T01:00:31.034Z,5.53
2018-06-08T01:02:58.175Z,6.20
2018-06-08T01:05:25.281Z,6.63
2018-06-08T01:07:53.184Z,5.30
2018-06-08T01:10:20.335Z,6.17
2018-06-08T01:12:47.472Z,6.70
2018-06-08T01:15:14.627Z,5.97
2018-06-08T01:17:41.764Z,5.53
2018-06-08T01:20:08.904Z,5.70
2018-06-08T01:22:36.029Z,5.90
2018-06-08T01:25:03.196Z,6.00
2018-06-08T01:27:30.282Z,6.13
2018-06-08T01:29:57.399Z,6.43
2018-06-08T01:32:24.492Z,6.70
2018-06-08T01:34:51.660Z,6.70
2018-06-08T01:37:18.771Z,6.00
2018-06-08T01:39:45.883Z,6.47
2018-06-08T01:42:13.019Z,7.53
2018-06-08T01:44:40.165Z,6.30
2018-06-08T01:47:07.294Z,6.23
2018-06-08T01:49:34.382Z,6.33
2018-06-08T01:52:01.495Z,5.87
2018-06-08T01:54:28.610Z,5.70
2018-06-08T01:56:55.725Z,6.90
2018-06-08T01:59:22.858Z,5.97
2018-06-08T02:01:49.977Z,5.90
2018-06-08T02:04:17.073Z,5.17
2018-06-08T02:06:44.238Z,6.50
2018-06-08T02:09:11.330Z,6.63
2018-06-08T02:11:38.458Z,6.60
2018-06-08T02:14:05.573Z,6.53
2018-06-08T02:16:32.734Z,6.77
2018-06-08T02:18:59.850Z,7.47
2018-06-08T02:21:26.934Z,6.60
2018-06-08T02:23:54.057Z,6.53
2018-06-08T02:26:21.154Z,7.10
2018-06-08T02:28:48.314Z,6.53
2018-06-08T02:31:15.478Z,7.03
2018-06-08T02:33:42.610Z,6.60
2018-06-08T02:36:09.731Z,6.20
2018-06-08T02:38:36.856Z,6.60
2018-06-08T02:41:04.697Z,6.60
2018-06-08T02:43:31.831Z,7.30
2018-06-08T02:45:58.958Z,6.83
2018-06-08T02:48:26.082Z,7.13
2018-06-08T02:50:53.199Z,6.10
2018-06-08T02:53:20.290Z,7.10
2018-06-08T02:55:47.456Z,6.63
2018-06-08T02:58:14.638Z,6.77
2018-06-08T03:00:41.758Z,7.27
2018-06-08T03:03:08.877Z,7.60
2018-06-08T03:05:36.002Z,6.13
2018-06-08T03:08:03.130Z,6.43
2018-06-08T03:10:30.250Z,6.80
2018-06-08T03:12:57.345Z,6.90
2018-06-08T03:15:24.463Z,7.03
2018-06-08T03:17:51.549Z,7.40
2018-06-08T03:20:18.755Z,6.50
2018-06-08T03:22:45.886Z,7.50
2018-06-08T03:25:13.014Z,7.47
2018-06-08T03:27:40.113Z,6.90
2018-06-08T03:30:07.262Z,6.47
2018-06-08T03:32:34.378Z,7.27
2018-06-08T03:35:01.562Z,6.73
2018-06-08T03:37:28.671Z,7.60
2018-06-08T03:39:55.793Z,7.63
2018-06-08T03:42:22.909Z,5.73
2018-06-08T03:44:50.033Z,7.80
2018-06-08T03:47:17.163Z,7.10
2018-06-08T03:49:44.297Z,7.10
2018-06-08T03:52:11.421Z,8.13
2018-06-08T03:54:38.544Z,8.40
2018-06-08T03:57:05.633Z,7.23
2018-06-08T03:59:32.798Z,7.30
2018-06-08T04:01:59.891Z,8.47
2018-06-08T04:04:27.020Z,7.90
2018-06-08T04:06:54.110Z,7.60
2018-06-08T04:09:21.237Z,8.83
2018-06-08T04:11:48.387Z,8.07
2018-06-08T04:14:15.493Z,7.63
2018-06-08T04:16:42.614Z,7.50
2018-06-08T04:19:09.705Z,7.40
2018-06-08T04:21:36.834Z,8.27
2018-06-08T04:24:03.966Z,9.80
2018-06-08T04:26:31.122Z,7.57
2018-06-08T04:28:58.209Z,7.93
2018-06-08T04:31:25.308Z,7.47
2018-06-08T04:33:52.443Z,9.90
2018-06-08T04:36:19.585Z,8.00
2018-06-08T04:38:46.759Z,10.27
2018-06-08T04:41:13.885Z,8.17
2018-06-08T04:43:41.018Z,8.63
2018-06-08T04:46:08.171Z,9.27
2018-06-08T04:48:35.321Z,9.33
2018-06-08T04:51:02.468Z,9.20
2018-06-08T04:53:29.578Z,8.53
2018-06-08T04:55:56.590Z,8.40
2018-06-08T04:58:23.649Z,9.13
2018-06-08T05:00:50.689Z,8.97
2018-06-08T05:03:17.753Z,7.90
2018-06-08T05:05:44.888Z,8.33
2018-06-08T05:08:11.943Z,8.43
2018-06-08T05:10:38.975Z,8.83
2018-06-08T05:13:06.045Z,7.90
2018-06-08T05:15:33.138Z,8.63
2018-06-08T05:18:00.155Z,8.30
2018-06-08T05:20:27.206Z,8.10
2018-06-08T05:22:54.223Z,9.07
2018-06-08T05:25:21.259Z,8.30
2018-06-08T05:27:48.409Z,9.97
2018-06-08T05:30:17.934Z,7.37
2018-06-08T05:32:45.005Z,7.60
2018-06-08T05:35:12.042Z,8.77
2018-06-08T05:37:39.063Z,9.83
2018-06-08T05:40:06.115Z,8.57
2018-06-08T05:42:33.225Z,8.23
2018-06-08T05:45:00.254Z,8.37
2018-06-08T05:47:27.266Z,8.97
2018-06-08T05:49:54.320Z,8.30
2018-06-08T05:52:21.343Z,8.23
2018-06-08T05:54:48.486Z,8.10
2018-06-08T05:57:15.527Z,8.70
2018-06-08T05:59:42.594Z,8.80
2018-06-08T06:02:09.646Z,8.77
2018-06-08T06:04:36.655Z,10.33
2018-06-08T06:07:03.750Z,7.97
2018-06-08T06:09:30.800Z,8.13
2018-06-08T06:11:57.881Z,8.30
2018-06-08T06:14:24.966Z,9.07
2018-06-08T06:16:52.002Z,8.70
2018-06-08T06:19:19.170Z,9.23
2018-06-08T06:21:46.274Z,8.40
2018-06-08T06:24:13.408Z,11.10
2018-06-08T06:26:40.467Z,10.17
2018-06-08T06:29:07.562Z,9.80
2018-06-08T06:31:34.627Z,9.30
2018-06-08T06:34:01.713Z,9.70
2018-06-08T06:36:28.740Z,9.20
2018-06-08T06:38:55.778Z,10.40
2018-06-08T06:41:22.862Z,8.90
2018-06-08T06:43:49.887Z,9.80
2018-06-08T06:46:16.988Z,9.30
2018-06-08T06:48:44.074Z,9.47
2018-06-08T06:51:11.152Z,9.30
2018-06-08T06:53:38.279Z,10.57
2018-06-08T06:56:05.351Z,10.90
2018-06-08T06:58:32.448Z,10.13
2018-06-08T07:00:59.515Z,9.73
2018-06-08T07:03:26.607Z,10.07
2018-06-08T07:05:53.738Z,9.73
2018-06-08T07:08:20.811Z,11.73
2018-06-08T07:10:47.974Z,10.90
2018-06-08T07:13:15.091Z,10.20
2018-06-08T07:15:42.168Z,9.03
2018-06-08T07:18:09.212Z,10.33
2018-06-08T07:20:36.306Z,10.10
2018-06-08T07:23:03.418Z,10.20
2018-06-08T07:25:30.482Z,11.20
2018-06-08T07:27:57.590Z,10.40
2018-06-08T07:30:24.674Z,10.10
2018-06-08T07:32:51.735Z,10.80
2018-06-08T07:35:18.817Z,10.10
2018-06-08T07:37:45.968Z,10.03
2018-06-08T07:40:13.130Z,10.90
2018-06-08T07:42:40.235Z,10.40
2018-06-08T07:45:07.347Z,12.27
2018-06-08T07:47:34.431Z,10.37
2018-06-08T07:50:01.473Z,10.13
2018-06-08T07:52:28.527Z,10.40
2018-06-08T07:54:55.708Z,10.20
2018-06-08T07:57:22.830Z,10.47
2018-06-08T07:59:49.887Z,10.73
2018-06-08T08:02:16.979Z,10.60
2018-06-08T08:04:44.088Z,10.73
2018-06-08T08:07:11.138Z,11.13
2018-06-08T08:09:38.194Z,10.70
2018-06-08T08:12:05.309Z,9.50
2018-06-08T08:14:32.383Z,10.67
2018-06-08T08:16:59.440Z,9.97
2018-06-08T08:19:26.576Z,10.43
2018-06-08T08:21:53.618Z,11.40
2018-06-08T08:24:20.694Z,11.60
2018-06-08T08:26:47.761Z,10.27
2018-06-08T08:29:14.868Z,11.10
2018-06-08T08:31:41.915Z,11.53
2018-06-08T08:34:09.162Z,11.77
2018-06-08T08:36:36.236Z,12.67
2018-06-08T08:39:06.636Z,10.50
2018-06-08T08:41:33.703Z,11.40
2018-06-08T08:44:00.722Z,11.60
2018-06-08T08:46:27.790Z,9.50
2018-06-08T08:48:54.845Z,12.70
2018-06-08T08:51:21.898Z,10.87
2018-06-08T08:53:49.001Z,11.40
2018-06-08T08:56:16.084Z,10.20
2018-06-08T08:58:43.232Z,11.30
2018-06-08T09:01:10.301Z,11.10
2018-06-08T09:03:37.373Z,11.40
2018-06-08T09:06:04.530Z,9.47
2018-06-08T09:08:31.623Z,10.80
2018-06-08T09:10:58.723Z,9.97
2018-06-08T09:13:25.790Z,11.27
2018-06-08T09:15:52.910Z,9.50
2018-06-08T09:18:20.039Z,10.30
2018-06-08T09:20:47.237Z,11.87
2018-06-08T09:23:14.432Z,10.10
2018-06-08T09:25:41.525Z,9.90
2018-06-08T09:28:08.635Z,9.23
2018-06-08T09:30:35.696Z,9.47
2018-06-08T09:33:02.826Z,8.70
2018-06-08T09:35:29.949Z,10.13
2018-06-08T09:37:57.094Z,9.00
2018-06-08T09:40:24.194Z,8.27
2018-06-08T09:42:51.378Z,10.40
2018-06-08T09:45:18.489Z,8.50
2018-06-08T09:47:45.746Z,8.50
2018-06-08T09:50:12.911Z,7.93
2018-06-08T09:52:40.034Z,8.60
2018-06-08T09:55:07.195Z,9.57
2018-06-08T09:57:34.321Z,7.23
2018-06-08T10:00:01.475Z,6.87
2018-06-08T10:02:28.623Z,6.83
2018-06-08T10:04:55.762Z,7.90
2018-06-08T10:07:22.878Z,8.57
2018-06-08T10:09:49.998Z,8.33
2018-06-08T10:12:17.184Z,8.07
2018-06-08T10:14:44.330Z,9.23
2018-06-08T10:17:11.490Z,8.60
2018-06-08T10:19:38.631Z,8.07
2018-06-08T10:22:05.803Z,8.13
2018-06-08T10:24:32.955Z,8.60
2018-06-08T10:27:00.098Z,8.30
2018-06-08T10:29:27.211Z,8.77
2018-06-08T10:31:54.743Z,8.30
2018-06-08T10:34:21.978Z,7.90
2018-06-08T10:36:49.120Z,7.20
2018-06-08T10:39:16.306Z,8.50
2018-06-08T10:41:43.485Z,8.60
2018-06-08T10:44:10.591Z,8.50
2018-06-08T10:46:37.790Z,9.03
2018-06-08T10:49:04.894Z,9.17
2018-06-08T10:51:32.025Z,7.93
2018-06-08T10:53:59.158Z,8.90
2018-06-08T10:56:26.258Z,9.53
2018-06-08T10:58:53.421Z,9.57
2018-06-08T11:01:20.530Z,8.80
2018-06-08T11:03:47.710Z,7.77
2018-06-08T11:06:14.862Z,9.93
2018-06-08T11:08:42.003Z,8.50
2018-06-08T11:11:09.155Z,10.30
2018-06-08T11:13:36.287Z,8.70
2018-06-08T11:16:03.466Z,9.03
2018-06-08T11:18:30.642Z,9.53
2018-06-08T11:20:57.749Z,8.27
2018-06-08T11:23:24.910Z,8.47
2018-06-08T11:25:52.024Z,8.30
2018-06-08T11:28:19.163Z,7.07
2018-06-08T11:30:46.349Z,8.47
2018-06-08T11:33:13.551Z,7.90
2018-06-08T11:35:40.706Z,7.63
2018-06-08T11:38:07.863Z,6.53
2018-06-08T11:40:34.978Z,8.00
2018-06-08T11:43:02.132Z,8.30
2018-06-08T11:45:29.250Z,7.50
2018-06-08T11:47:56.358Z,6.97
2018-06-08T11:50:23.510Z,7.73
2018-06-08T11:52:50.620Z,8.73
2018-06-08T11:55:17.870Z,8.60
2018-06-08T11:57:45.069Z,7.60
2018-06-08T12:00:12.269Z,8.40
2018-06-08T12:02:39.375Z,7.73
2018-06-08T12:05:06.478Z,8.23
2018-06-08T12:07:33.656Z,8.83
2018-06-08T12:10:00.831Z,8.67
2018-06-08T12:12:27.971Z,8.10
2018-06-08T12:14:55.060Z,8.33
2018-06-08T12:17:22.205Z,7.43
2018-06-08T12:19:49.312Z,8.90
2018-06-08T12:22:16.477Z,8.63
2018-06-08T12:24:43.627Z,8.07
2018-06-08T12:27:10.709Z,8.70
2018-06-08T12:29:37.825Z,8.00
2018-06-08T12:32:05.016Z,8.90
2018-06-08T12:34:32.101Z,8.00
2018-06-08T12:36:59.218Z,8.37
2018-06-08T12:39:26.357Z,9.47
2018-06-08T12:41:53.450Z,9.33
2018-06-08T12:44:20.576Z,9.60
2018-06-08T12:46:47.710Z,10.00
2018-06-08T12:49:14.822Z,9.53
2018-06-08T12:51:41.951Z,9.90
2018-06-08T12:54:09.084Z,9.50
2018-06-08T12:56:36.255Z,9.70
2018-06-08T12:59:03.594Z,9.97
2018-06-08T13:01:30.771Z,9.20
2018-06-08T13:03:57.862Z,9.63
2018-06-08T13:06:24.954Z,8.93
2018-06-08T13:08:52.174Z,9.50
2018-06-08T13:11:19.288Z,8.83
2018-06-08T13:13:46.434Z,9.20
2018-06-08T13:16:13.571Z,9.10
2018-06-08T13:18:40.674Z,10.00
2018-06-08T13:21:07.848Z,10.10
2018-06-08T13:23:34.982Z,10.20
2018-06-08T13:26:02.089Z,10.17
2018-06-08T13:28:29.234Z,9.70
2018-06-08T13:30:56.319Z,9.30
2018-06-08T13:33:23.421Z,9.40
2018-06-08T13:35:50.562Z,9.80
2018-06-08T13:38:17.661Z,8.30
2018-06-08T13:40:44.814Z,9.53
2018-06-08T13:43:11.942Z,10.60
2018-06-08T13:45:39.031Z,9.40
2018-06-08T13:48:06.134Z,9.30
2018-06-08T13:50:33.233Z,9.90
2018-06-08T13:53:00.349Z,9.70
2018-06-08T13:55:27.481Z,9.40
2018-06-08T13:57:54.597Z,8.30
2018-06-08T14:00:21.725Z,9.53
2018-06-08T14:02:48.866Z,10.10
2018-06-08T14:05:16.051Z,10.13
2018-06-08T14:07:43.162Z,9.53
2018-06-08T14:10:10.288Z,10.30
2018-06-08T14:12:37.386Z,9.50
2018-06-08T14:15:04.530Z,9.13
2018-06-08T14:17:31.769Z,9.20
2018-06-08T14:19:58.901Z,9.50
2018-06-08T14:22:26.013Z,8.87
2018-06-08T14:24:53.121Z,7.60
2018-06-08T14:27:20.218Z,10.20
2018-06-08T14:29:47.351Z,9.10
2018-06-08T14:32:14.518Z,8.93
2018-06-08T14:34:41.622Z,9.27
2018-06-08T14:37:08.750Z,7.80
2018-06-08T14:39:35.870Z,8.90
2018-06-08T14:42:02.973Z,9.07
2018-06-08T14:44:30.129Z,9.27
2018-06-08T14:46:57.217Z,9.10
2018-06-08T14:49:24.337Z,9.27
2018-06-08T14:51:51.426Z,9.17
2018-06-08T14:54:18.563Z,9.20
2018-06-08T14:56:45.703Z,8.97
2018-06-08T14:59:12.840Z,9.20
2018-06-08T15:01:39.998Z,9.23
2018-06-08T15:04:07.109Z,9.17
2018-06-08T15:06:34.194Z,9.50
2018-06-08T15:09:01.330Z,9.30
2018-06-08T15:11:28.442Z,9.40
2018-06-08T15:13:55.537Z,9.00
2018-06-08T15:16:22.690Z,9.57
2018-06-08T15:18:49.814Z,9.33
2018-06-08T15:21:16.966Z,7.60
2018-06-08T15:23:44.125Z,9.10
2018-06-08T15:26:11.205Z,9.20
2018-06-08T15:28:38.353Z,8.03
2018-06-08T15:31:05.482Z,8.77
2018-06-08T15:33:32.590Z,8.13
2018-06-08T15:35:59.713Z,8.90
2018-06-08T15:38:26.802Z,8.80
2018-06-08T15:40:53.930Z,8.80
2018-06-08T15:43:21.026Z,8.80
2018-06-08T15:45:48.130Z,8.60
2018-06-08T15:48:15.334Z,9.00
2018-06-08T15:50:42.414Z,8.33
2018-06-08T15:53:09.530Z,9.37
2018-06-08T15:55:36.643Z,10.00
2018-06-08T15:58:03.765Z,8.60
2018-06-08T16:00:30.948Z,8.77
2018-06-08T16:02:58.046Z,8.30
2018-06-08T16:05:25.167Z,9.67
2018-06-08T16:07:52.272Z,10.17
2018-06-08T16:10:19.402Z,8.63
2018-06-08T16:12:46.518Z,9.33
2018-06-08T16:15:13.653Z,9.57
2018-06-08T16:17:40.770Z,8.80
2018-06-08T16:20:07.905Z,8.37
2018-06-08T16:22:35.050Z,8.10
2018-06-08T16:25:02.120Z,9.10
2018-06-08T16:27:29.237Z,10.40
2018-06-08T16:29:56.366Z,9.20
2018-06-08T16:32:23.506Z,10.97
2018-06-08T16:34:50.702Z,8.87
2018-06-08T16:37:17.871Z,8.47
2018-06-08T16:39:45.015Z,9.67
2018-06-08T16:42:12.139Z,9.10
2018-06-08T16:44:39.225Z,9.03
2018-06-08T16:47:06.317Z,8.33
2018-06-08T16:49:33.425Z,9.57
2018-06-08T16:52:00.538Z,9.10
2018-06-08T16:54:27.693Z,10.43
2018-06-08T16:56:54.766Z,9.73
2018-06-08T16:59:21.893Z,8.17
2018-06-08T17:01:48.985Z,9.00
2018-06-08T17:04:16.129Z,9.20
2018-06-08T17:06:43.286Z,10.20
2018-06-08T17:09:10.378Z,9.30
2018-06-08T17:11:37.461Z,8.43
2018-06-08T17:14:04.634Z,9.60
2018-06-08T17:16:31.742Z,9.73
2018-06-08T17:18:58.862Z,9.10
2018-06-08T17:21:25.942Z,9.73
2018-06-08T17:23:53.136Z,10.93
2018-06-08T17:26:20.206Z,11.07
2018-06-08T17:28:47.355Z,11.37
2018-06-08T17:31:14.610Z,12.37
2018-06-08T17:33:41.706Z,12.93
2018-06-08T17:36:08.818Z,10.50
2018-06-08T17:38:35.905Z,12.77
2018-06-08T17:41:03.017Z,12.53
2018-06-08T17:43:30.104Z,12.87
2018-06-08T17:45:57.226Z,11.07
2018-06-08T17:48:24.325Z,9.77
2018-06-08T17:50:51.446Z,9.40
2018-06-08T17:53:18.537Z,9.47
2018-06-08T17:55:45.709Z,9.90
2018-06-08T17:58:12.869Z,10.73
2018-06-08T18:00:39.998Z,9.83
2018-06-08T18:03:07.210Z,10.90
2018-06-08T18:05:34.337Z,9.73
2018-06-08T18:08:01.498Z,11.20
2018-06-08T18:10:28.598Z,9.93
2018-06-08T18:12:55.699Z,9.80
2018-06-08T18:15:22.822Z,10.30
2018-06-08T18:17:50.021Z,9.73
2018-06-08T18:20:17.094Z,10.60
2018-06-08T18:22:44.238Z,10.47
2018-06-08T18:25:11.374Z,9.87
2018-06-08T18:27:38.502Z,10.20
2018-06-08T18:30:05.634Z,10.17
2018-06-08T18:32:32.718Z,10.20
2018-06-08T18:34:59.837Z,9.33
2018-06-08T18:37:26.986Z,10.30
2018-06-08T18:39:54.150Z,11.10
2018-06-08T18:42:21.237Z,10.97
2018-06-08T18:44:48.447Z,11.10
2018-06-08T18:47:15.573Z,11.00
2018-06-08T18:49:42.662Z,11.37
2018-06-08T18:52:09.786Z,10.17
2018-06-08T18:54:36.886Z,10.53
2018-06-08T18:57:04.028Z,9.27
2018-06-08T18:59:31.146Z,9.40
2018-06-08T19:01:58.269Z,10.00
2018-06-08T19:04:25.389Z,9.07
2018-06-08T19:06:52.478Z,8.13
2018-06-08T19:09:19.601Z,8.07
2018-06-08T19:11:46.734Z,7.43
2018-06-08T19:14:13.922Z,6.93
2018-06-08T19:16:41.020Z,6.90
2018-06-08T19:19:08.101Z,7.30
2018-06-08T19:21:35.229Z,7.20
2018-06-08T19:24:02.334Z,6.43
2018-06-08T19:26:29.457Z,7.90
2018-06-08T19:28:56.538Z,6.40
2018-06-08T19:31:23.625Z,5.73
2018-06-08T19:33:50.780Z,6.10
2018-06-08T19:36:17.878Z,5.80
2018-06-08T19:38:45.064Z,6.03
2018-06-08T19:41:12.174Z,5.60
2018-06-08T19:43:39.286Z,5.50
2018-06-08T19:46:06.378Z,6.03
2018-06-08T19:48:33.537Z,5.67
2018-06-08T19:51:00.618Z,6.10
2018-06-08T19:53:27.642Z,7.30
2018-06-08T19:55:54.723Z,6.40
2018-06-08T19:58:21.768Z,6.67
2018-06-08T20:00:48.810Z,7.27
2018-06-08T20:03:15.894Z,6.50
2018-06-08T20:05:42.910Z,6.70
2018-06-08T20:08:09.962Z,6.50
2018-06-08T20:10:36.983Z,6.70
2018-06-08T20:13:04.251Z,7.00
2018-06-08T20:15:31.294Z,6.63
2018-06-08T20:17:58.314Z,7.77
2018-06-08T20:20:25.357Z,7.07
2018-06-08T20:22:52.462Z,6.57
2018-06-08T20:25:19.526Z,7.03
2018-06-08T20:27:46.602Z,7.03
2018-06-08T20:30:13.655Z,7.87
2018-06-08T20:32:40.797Z,7.40
2018-06-08T20:35:07.858Z,7.10
2018-06-08T20:37:34.902Z,8.67
2018-06-08T20:40:01.990Z,7.40
2018-06-08T20:42:29.014Z,8.30
2018-06-08T20:44:56.065Z,9.37
2018-06-08T20:47:23.122Z,9.93
2018-06-08T20:49:50.160Z,9.73
2018-06-08T20:52:17.226Z,9.03
2018-06-08T20:54:44.359Z,8.20
2018-06-08T20:57:28.234Z,7.97
2018-06-08T20:59:55.251Z,7.87
2018-06-08T21:02:22.396Z,8.00
2018-06-08T21:04:49.310Z,7.33
2018-06-08T21:07:16.396Z,7.40
2018-06-08T21:09:43.447Z,7.67
2018-06-08T21:12:10.496Z,9.00
2018-06-08T21:14:37.586Z,8.57
2018-06-08T21:17:04.626Z,8.90
2018-06-08T21:19:31.676Z,9.50
2018-06-08T21:21:58.753Z,8.43
2018-06-08T21:24:25.778Z,8.53
2018-06-08T21:26:52.831Z,8.03
2018-06-08T21:29:19.862Z,8.10
2018-06-08T21:31:46.957Z,7.77
2018-06-08T21:34:14.031Z,9.17
2018-06-08T21:36:41.078Z,8.40
2018-06-08T21:39:08.127Z,8.50
2018-06-08T21:41:35.227Z,8.30
2018-06-08T21:44:02.241Z,7.90
2018-06-08T21:46:29.290Z,7.83
2018-06-08T21:48:56.290Z,9.60
2018-06-08T21:51:23.318Z,8.43
2018-06-08T21:53:50.378Z,8.10
2018-06-08T21:56:17.502Z,9.60
2018-06-08T21:58:44.611Z,9.70
2018-06-08T22:01:11.635Z,10.17
2018-06-08T22:03:38.683Z,10.30
2018-06-08T22:06:05.703Z,10.13
2018-06-08T22:08:32.774Z,10.17
2018-06-08T22:10:59.810Z,9.73
2018-06-08T22:13:26.859Z,10.00
2018-06-08T22:15:53.953Z,10.53
2018-06-08T22:18:20.993Z,9.87
2018-06-08T22:20:48.106Z,10.77
2018-06-08T22:23:15.255Z,10.07
2018-06-08T22:25:42.277Z,11.07
2018-06-08T22:28:09.310Z,11.30
2018-06-08T22:30:36.317Z,13.17
2018-06-08T22:33:03.363Z,12.80
2018-06-08T22:35:30.490Z,12.70
2018-06-08T22:37:57.506Z,12.47
2018-06-08T22:40:24.554Z,12.47
2018-06-08T22:42:51.587Z,10.20
2018-06-08T22:45:18.624Z,11.10
2018-06-08T22:47:45.681Z,10.00
2018-06-08T22:50:12.727Z,11.23
2018-06-08T22:52:39.761Z,10.27
2018-06-08T22:55:06.763Z,10.20
2018-06-08T22:57:33.762Z,10.03
2018-06-08T23:00:00.892Z,10.47
2018-06-08T23:02:27.946Z,11.43
2018-06-08T23:04:54.959Z,10.87
2018-06-08T23:07:21.994Z,11.83
2018-06-08T23:09:49.022Z,11.20
2018-06-08T23:12:16.113Z,10.23
2018-06-08T23:14:43.249Z,11.03
2018-06-08T23:17:10.281Z,11.10
2018-06-08T23:19:37.326Z,11.17
2018-06-08T23:22:04.461Z,9.63
2018-06-08T23:24:31.545Z,11.40
2018-06-08T23:26:58.562Z,11.10
2018-06-08T23:29:25.578Z,13.07
2018-06-08T23:31:52.618Z,11.70
2018-06-08T23:34:19.675Z,11.70
2018-06-08T23:36:46.723Z,11.90
2018-06-08T23:39:13.786Z,11.20
2018-06-08T23:41:40.790Z,11.40
2018-06-08T23:44:07.801Z,13.03
2018-06-08T23:46:34.947Z,10.27
2018-06-08T23:49:02.023Z,12.00
2018-06-08T23:51:29.072Z,11.63
2018-06-08T23:53:56.090Z,11.40
2018-06-08T23:56:23.131Z,12.37
2018-06-08T23:58:50.137Z,11.40
